Time;durP1;ratioP1;P1;durP2;ratioP2;P2;SDS_P1;SDS_P2;PMS_P1;PMS_P2;Temp;Humidity;BMP_temperature;BMP_pressure;BME280_temperature;BME280_humidity;BME280_pressure;Samples;Min_cycle;Max_cycle;Signal;HPM_P1;HPM_P2
2022/01/23 00:02:05;;;;;;;0.80;0.80;;;;;;;;;;1907390;74;26262;-38
2022/01/23 00:04:20;;;;;;;1.00;1.00;;;;;;;;;;1903458;74;26305;-35
2022/01/23 00:06:48;;;;;;;0.80;0.80;;;;;;;;;;1907106;74;26797;-41
2022/01/23 00:09:17;;;;;;;1.17;1.10;;;;;;;;;;1909849;74;26849;-40
2022/01/23 00:11:52;;;;;;;0.93;0.93;;;;;;;;;;1912445;74;26894;-39
2022/01/23 00:19:28;;;;;;;0.80;0.80;;;;;;;;;;1872305;76;26335;-38
2022/01/23 00:21:58;;;;;;;0.80;0.80;;;;;;;;;;1874246;75;26258;-38
2022/01/23 00:32:28;;;;;;;0.90;0.90;;;;;;;;;;1890617;74;26815;-38
2022/01/23 00:34:55;;;;;;;0.80;0.80;;;;;;;;;;1891336;74;26781;-37
2022/01/23 00:37:24;;;;;;;0.80;0.80;;;;;;;;;;1888021;75;26232;-37
2022/01/23 00:39:52;;;;;;;0.80;0.80;;;;;;;;;;1881173;76;25566;-41
2022/01/23 00:42:19;;;;;;;0.90;0.90;;;;;;;;;;1888973;76;26607;-41
2022/01/23 00:44:51;;;;;;;0.70;0.70;;;;;;;;;;1888851;75;26738;-43
2022/01/23 00:47:15;;;;;;;0.82;0.82;;;;;;;;;;1877405;76;26367;-42
2022/01/23 00:49:42;;;;;;;0.80;0.80;;;;;;;;;;1878690;74;26434;-36
2022/01/23 00:52:10;;;;;;;0.70;0.70;;;;;;;;;;1884485;76;26190;-35
2022/01/23 00:54:37;;;;;;;0.88;0.88;;;;;;;;;;1885084;75;26377;-35
2022/01/23 00:57:05;;;;;;;0.80;0.80;;;;;;;;;;1874241;76;26235;-37
2022/01/23 00:59:32;;;;;;;1.10;1.00;;;;;;;;;;1886411;76;26423;-41
2022/01/23 01:01:59;;;;;;;0.80;0.80;;;;;;;;;;1883676;76;26709;-38
2022/01/23 01:04:28;;;;;;;0.85;0.85;;;;;;;;;;1860277;76;26319;-43
2022/01/23 01:06:55;;;;;;;0.70;0.70;;;;;;;;;;1869148;76;26606;-38
2022/01/23 01:09:23;;;;;;;0.72;0.72;;;;;;;;;;1877965;76;26249;-37
2022/01/23 01:11:56;;;;;;;0.70;0.70;;;;;;;;;;1885105;76;26271;-35
2022/01/23 01:14:29;;;;;;;0.88;0.88;;;;;;;;;;1885058;75;26350;-38
2022/01/23 01:30:34;;;;;;;1.00;1.00;;;;;;;;;;1777369;79;26763;-35
2022/01/23 01:33:13;;;;;;;0.70;0.70;;;;;;;;;;1775521;80;26366;-35
2022/01/23 01:35:35;;;;;;;0.65;0.65;;;;;;;;;;1776530;80;26375;-36
2022/01/23 01:37:57;;;;;;;0.80;0.80;;;;;;;;;;1777873;79;26331;-38
2022/01/23 01:40:25;;;;;;;0.80;0.80;;;;;;;;;;1781168;80;26320;-37
2022/01/23 01:42:54;;;;;;;0.90;0.90;;;;;;;;;;1774167;80;27518;-35
2022/01/23 01:45:25;;;;;;;0.80;0.80;;;;;;;;;;1780039;80;26376;-36
2022/01/23 01:47:54;;;;;;;0.65;0.65;;;;;;;;;;1780007;80;26264;-36
2022/01/23 01:50:21;;;;;;;0.80;0.80;;;;;;;;;;1779244;80;26302;-35
2022/01/23 01:52:49;;;;;;;0.80;0.80;;;;;;;;;;1775643;79;26320;-36
2022/01/23 01:55:23;;;;;;;0.90;0.90;;;;;;;;;;1780682;79;25571;-39
2022/01/23 01:57:53;;;;;;;0.70;0.70;;;;;;;;;;1775969;80;26331;-38
2022/01/23 02:00:41;;;;;;;0.88;0.88;;;;;;;;;;1776842;79;26946;-37
2022/01/23 02:10:54;;;;;;;0.70;0.70;;;;;;;;;;1778202;79;27045;-35
2022/01/23 02:13:25;;;;;;;0.72;0.72;;;;;;;;;;1779350;80;26363;-37
2022/01/23 02:16:32;;;;;;;1.62;0.78;;;;;;;;;;1780496;80;26293;-36
2022/01/23 02:22:29;;;;;;;0.70;0.70;;;;;;;;;;1772894;80;26268;-35
2022/01/23 02:51:49;;;;;;;0.60;0.60;;;;;;;;;;1769893;80;26375;-36
2022/01/23 02:56:48;;;;;;;0.70;0.70;;;;;;;;;;1778265;80;26311;-36
2022/01/23 02:59:22;;;;;;;0.60;0.60;;;;;;;;;;1784625;80;26373;-39
2022/01/23 03:02:00;;;;;;;0.60;0.60;;;;;;;;;;1800610;79;26299;-37
2022/01/23 03:04:11;;;;;;;0.70;0.70;;;;;;;;;;1776780;80;26245;-36
2022/01/23 03:09:52;;;;;;;0.70;0.70;;;;;;;;;;1781141;79;25382;-37
2022/01/23 03:25:28;;;;;;;0.60;0.60;;;;;;;;;;1780760;79;26364;-36
2022/01/23 03:30:27;;;;;;;0.70;0.70;;;;;;;;;;1719324;83;26239;-37
2022/01/23 03:32:53;;;;;;;0.65;0.65;;;;;;;;;;1714838;82;26330;-36
2022/01/23 03:35:21;;;;;;;0.75;0.70;;;;;;;;;;1740604;80;26285;-36
2022/01/23 03:37:49;;;;;;;0.65;0.65;;;;;;;;;;1781236;80;26371;-37
2022/01/23 03:40:17;;;;;;;0.75;0.75;;;;;;;;;;1783894;80;26341;-37
2022/01/23 03:42:45;;;;;;;0.65;0.65;;;;;;;;;;1777004;80;26361;-37
2022/01/23 03:50:41;;;;;;;0.70;0.70;;;;;;;;;;1755474;80;26305;-37
2022/01/23 03:53:09;;;;;;;0.80;0.80;;;;;;;;;;1768256;79;27918;-37
2022/01/23 03:55:36;;;;;;;0.78;0.78;;;;;;;;;;1785887;79;26323;-36
2022/01/23 03:58:04;;;;;;;0.62;0.62;;;;;;;;;;1766812;79;26370;-38
2022/01/23 04:00:31;;;;;;;0.60;0.60;;;;;;;;;;1771938;79;26365;-35
2022/01/23 04:02:59;;;;;;;0.70;0.70;;;;;;;;;;1783851;80;26418;-37
2022/01/23 04:05:26;;;;;;;0.70;0.70;;;;;;;;;;1777865;80;26843;-37
2022/01/23 04:07:53;;;;;;;0.70;0.70;;;;;;;;;;1784526;80;26560;-36
2022/01/23 04:10:23;;;;;;;0.70;0.70;;;;;;;;;;1786473;79;26300;-36
2022/01/23 04:45:24;;;;;;;0.70;0.70;;;;;;;;;;1776815;80;26301;-37
2022/01/23 05:02:04;;;;;;;0.60;0.60;;;;;;;;;;1786627;79;26336;-37
2022/01/23 05:07:06;;;;;;;0.68;0.68;;;;;;;;;;1757098;80;26263;-37
2022/01/23 05:09:32;;;;;;;0.60;0.60;;;;;;;;;;1771949;77;26730;-35
2022/01/23 05:12:02;;;;;;;0.50;0.50;;;;;;;;;;1775772;79;26726;-36
2022/01/23 05:14:34;;;;;;;0.60;0.60;;;;;;;;;;1762518;79;26874;-35
2022/01/23 05:17:00;;;;;;;0.60;0.60;;;;;;;;;;1770764;80;26231;-37
2022/01/23 05:19:27;;;;;;;0.60;0.60;;;;;;;;;;1767197;80;26797;-36
2022/01/23 05:24:39;;;;;;;0.70;0.70;;;;;;;;;;1760487;80;26352;-35
2022/01/23 05:27:07;;;;;;;0.80;0.80;;;;;;;;;;1755609;80;26411;-35
2022/01/23 05:29:35;;;;;;;0.60;0.60;;;;;;;;;;1766747;80;26272;-35
2022/01/23 05:32:04;;;;;;;0.60;0.60;;;;;;;;;;1757073;80;26279;-35
2022/01/23 05:34:31;;;;;;;0.60;0.60;;;;;;;;;;1772126;80;26709;-37
2022/01/23 05:36:59;;;;;;;0.57;0.57;;;;;;;;;;1763901;80;26353;-34
2022/01/23 05:39:31;;;;;;;0.60;0.60;;;;;;;;;;1758230;80;26748;-35
2022/01/23 05:41:59;;;;;;;0.50;0.50;;;;;;;;;;1766563;80;26244;-35
2022/01/23 05:44:24;;;;;;;0.50;0.50;;;;;;;;;;1758503;80;26256;-39
2022/01/23 05:46:52;;;;;;;0.62;0.62;;;;;;;;;;1767736;80;26290;-37
2022/01/23 05:49:19;;;;;;;0.62;0.62;;;;;;;;;;1761460;80;26252;-36
2022/01/23 05:51:47;;;;;;;0.50;0.50;;;;;;;;;;1765957;80;26310;-36
2022/01/23 05:54:15;;;;;;;0.60;0.60;;;;;;;;;;1772169;80;26785;-35
2022/01/23 05:56:42;;;;;;;0.68;0.68;;;;;;;;;;1761086;80;26267;-35
2022/01/23 05:59:09;;;;;;;0.57;0.57;;;;;;;;;;1760268;80;26302;-35
2022/01/23 06:01:37;;;;;;;0.50;0.50;;;;;;;;;;1764720;80;26891;-35
2022/01/23 06:04:04;;;;;;;0.60;0.60;;;;;;;;;;1777025;80;26291;-36
2022/01/23 06:06:31;;;;;;;0.55;0.55;;;;;;;;;;1764965;81;26416;-36
2022/01/23 06:08:59;;;;;;;0.53;0.53;;;;;;;;;;1768757;80;26302;-35
2022/01/23 06:11:26;;;;;;;0.47;0.47;;;;;;;;;;1763649;80;26294;-35
2022/01/23 06:13:53;;;;;;;0.40;0.40;;;;;;;;;;1759434;80;26361;-36
2022/01/23 06:16:21;;;;;;;0.55;0.55;;;;;;;;;;1759883;80;26627;-35
2022/01/23 06:18:48;;;;;;;0.57;0.57;;;;;;;;;;1762329;80;26361;-35
2022/01/23 06:21:19;;;;;;;0.50;0.50;;;;;;;;;;1750826;80;26289;-35
2022/01/23 06:23:44;;;;;;;0.50;0.50;;;;;;;;;;1753283;80;26235;-37
2022/01/23 06:26:11;;;;;;;0.50;0.50;;;;;;;;;;1755485;80;25668;-35
2022/01/23 06:28:49;;;;;;;0.50;0.50;;;;;;;;;;1757113;80;26738;-35
2022/01/23 06:31:17;;;;;;;0.60;0.60;;;;;;;;;;1761372;80;26856;-35
2022/01/23 06:33:44;;;;;;;0.50;0.50;;;;;;;;;;1753463;80;26308;-37
2022/01/23 06:36:11;;;;;;;0.47;0.47;;;;;;;;;;1756878;80;26289;-35
2022/01/23 06:38:38;;;;;;;0.53;0.53;;;;;;;;;;1747944;80;26313;-36
2022/01/23 06:41:06;;;;;;;0.42;0.42;;;;;;;;;;1771710;80;26797;-35
2022/01/23 06:43:33;;;;;;;0.50;0.50;;;;;;;;;;1757033;80;26762;-35
2022/01/23 06:46:00;;;;;;;0.60;0.60;;;;;;;;;;1752516;80;26294;-35
2022/01/23 06:48:28;;;;;;;0.53;0.53;;;;;;;;;;1763850;80;26268;-37
2022/01/23 06:50:55;;;;;;;0.50;0.50;;;;;;;;;;1754927;80;26317;-37
2022/01/23 06:53:22;;;;;;;0.60;0.60;;;;;;;;;;1756836;80;26239;-37
2022/01/23 06:55:50;;;;;;;0.55;0.55;;;;;;;;;;1757700;80;25737;-36
2022/01/23 06:58:17;;;;;;;0.60;0.60;;;;;;;;;;1756668;80;26845;-35
2022/01/23 07:00:44;;;;;;;0.60;0.60;;;;;;;;;;1760112;80;26667;-35
2022/01/23 07:03:12;;;;;;;0.70;0.70;;;;;;;;;;1757274;80;26281;-36
2022/01/23 07:05:39;;;;;;;0.50;0.50;;;;;;;;;;1758883;80;25771;-35
2022/01/23 07:08:07;;;;;;;0.60;0.60;;;;;;;;;;1752563;80;26359;-37
2022/01/23 07:10:34;;;;;;;0.70;0.70;;;;;;;;;;1791296;79;27142;-36
2022/01/23 07:13:01;;;;;;;0.45;0.45;;;;;;;;;;1775821;80;26414;-37
2022/01/23 07:15:29;;;;;;;0.60;0.60;;;;;;;;;;1766653;80;26268;-37
2022/01/23 07:17:56;;;;;;;0.60;0.60;;;;;;;;;;1768525;79;26415;-36
2022/01/23 07:20:23;;;;;;;0.62;0.62;;;;;;;;;;1780376;79;26271;-38
2022/01/23 07:22:51;;;;;;;0.60;0.60;;;;;;;;;;1779061;79;26280;-37
2022/01/23 07:25:18;;;;;;;0.80;0.80;;;;;;;;;;1784096;79;26242;-36
2022/01/23 07:27:52;;;;;;;1.20;0.60;;;;;;;;;;1779632;79;26855;-39
2022/01/23 07:32:55;;;;;;;0.60;0.60;;;;;;;;;;1778795;79;26587;-35
2022/01/23 07:35:22;;;;;;;0.60;0.60;;;;;;;;;;1782426;79;26360;-37
2022/01/23 07:37:50;;;;;;;0.50;0.50;;;;;;;;;;1782059;79;26372;-37
2022/01/23 07:40:19;;;;;;;0.40;0.40;;;;;;;;;;1782213;79;26348;-38
2022/01/23 07:42:46;;;;;;;0.57;0.57;;;;;;;;;;1783690;79;26244;-37
2022/01/23 07:45:13;;;;;;;0.53;0.53;;;;;;;;;;1782824;79;26761;-35
2022/01/23 07:47:41;;;;;;;0.50;0.50;;;;;;;;;;1785240;79;26633;-37
2022/01/23 07:50:10;;;;;;;0.60;0.60;;;;;;;;;;1778248;79;26839;-36
2022/01/23 07:52:38;;;;;;;0.50;0.50;;;;;;;;;;1783758;79;26766;-37
2022/01/23 07:55:07;;;;;;;0.50;0.50;;;;;;;;;;1782697;79;26232;-35
2022/01/23 07:57:34;;;;;;;0.50;0.50;;;;;;;;;;1783154;79;26325;-38
2022/01/23 08:00:02;;;;;;;0.50;0.50;;;;;;;;;;1781904;79;26663;-35
2022/01/23 08:02:30;;;;;;;0.60;0.60;;;;;;;;;;1783001;79;26682;-36
2022/01/23 08:04:58;;;;;;;0.50;0.50;;;;;;;;;;1783972;79;26408;-36
2022/01/23 08:10:08;;;;;;;0.50;0.50;;;;;;;;;;1775221;79;26402;-38
2022/01/23 08:12:35;;;;;;;1.15;0.72;;;;;;;;;;1767324;80;26232;-36
2022/01/23 08:15:04;;;;;;;0.72;0.60;;;;;;;;;;1765345;80;26316;-37
2022/01/23 08:17:32;;;;;;;1.47;0.50;;;;;;;;;;1768725;80;26341;-35
2022/01/23 08:20:00;;;;;;;0.60;0.60;;;;;;;;;;1770025;80;26259;-36
2022/01/23 08:22:28;;;;;;;0.62;0.62;;;;;;;;;;1772657;80;26275;-40
2022/01/23 08:24:56;;;;;;;0.60;0.60;;;;;;;;;;1766801;80;26260;-34
2022/01/23 08:27:25;;;;;;;0.82;0.82;;;;;;;;;;1768458;80;26381;-36
2022/01/23 08:29:52;;;;;;;0.60;0.60;;;;;;;;;;1769260;80;26370;-39
2022/01/23 08:32:19;;;;;;;1.15;0.70;;;;;;;;;;1755159;80;26365;-36
2022/01/23 08:34:47;;;;;;;0.50;0.50;;;;;;;;;;1767309;81;25627;-41
2022/01/23 08:37:15;;;;;;;0.70;0.70;;;;;;;;;;1767242;80;26221;-37
2022/01/23 08:39:43;;;;;;;0.60;0.60;;;;;;;;;;1776394;80;26687;-37
2022/01/23 08:42:12;;;;;;;3.20;0.60;;;;;;;;;;1769379;80;26264;-36
2022/01/23 08:44:40;;;;;;;0.60;0.60;;;;;;;;;;1766764;80;26217;-36
2022/01/23 08:47:08;;;;;;;0.50;0.50;;;;;;;;;;1769033;80;26228;-39
2022/01/23 08:49:44;;;;;;;1.15;0.60;;;;;;;;;;1741551;79;26418;-39
2022/01/23 08:52:05;;;;;;;1.95;0.75;;;;;;;;;;1767635;80;26386;-36
2022/01/23 08:54:33;;;;;;;0.85;0.60;;;;;;;;;;1765347;80;26310;-36
2022/01/23 08:57:00;;;;;;;0.50;0.50;;;;;;;;;;1771978;80;26588;-37
2022/01/23 08:59:28;;;;;;;0.62;0.40;;;;;;;;;;1784579;80;26280;-36
2022/01/23 09:01:55;;;;;;;1.82;0.70;;;;;;;;;;1768970;80;26851;-36
2022/01/23 09:04:22;;;;;;;1.00;0.70;;;;;;;;;;1771545;80;26749;-38
2022/01/23 09:06:50;;;;;;;0.50;0.50;;;;;;;;;;1781924;80;26214;-36
2022/01/23 09:09:22;;;;;;;0.40;0.40;;;;;;;;;;1759515;80;26273;-37
2022/01/23 09:12:03;;;;;;;0.57;0.57;;;;;;;;;;1765588;80;26869;-37
2022/01/23 09:14:28;;;;;;;1.98;0.60;;;;;;;;;;1753928;80;26787;-40
2022/01/23 09:16:55;;;;;;;0.65;0.65;;;;;;;;;;1756114;80;26302;-36
2022/01/23 09:19:23;;;;;;;0.55;0.50;;;;;;;;;;1756232;80;26454;-39
2022/01/23 09:21:50;;;;;;;2.40;0.70;;;;;;;;;;1763715;80;26274;-37
2022/01/23 09:24:19;;;;;;;0.60;0.60;;;;;;;;;;1762451;80;26294;-36
2022/01/23 09:26:52;;;;;;;0.60;0.60;;;;;;;;;;1752278;80;26331;-36
2022/01/23 09:29:17;;;;;;;5.70;1.67;;;;;;;;;;1760805;80;26342;-37
2022/01/23 09:31:52;;;;;;;0.60;0.60;;;;;;;;;;1742822;80;27041;-40
2022/01/23 09:34:21;;;;;;;0.62;0.62;;;;;;;;;;1758784;80;26302;-36
2022/01/23 09:36:48;;;;;;;0.70;0.70;;;;;;;;;;1763819;80;26348;-37
2022/01/23 09:39:17;;;;;;;0.82;0.70;;;;;;;;;;1766960;80;26821;-36
2022/01/23 09:41:46;;;;;;;3.60;0.95;;;;;;;;;;1753895;80;26278;-36
2022/01/23 09:44:14;;;;;;;0.60;0.60;;;;;;;;;;1760889;80;26313;-39
2022/01/23 09:46:43;;;;;;;0.68;0.60;;;;;;;;;;1767745;80;26281;-39
2022/01/23 09:49:15;;;;;;;0.60;0.60;;;;;;;;;;1761467;80;26326;-38
2022/01/23 09:51:43;;;;;;;0.68;0.65;;;;;;;;;;1766978;80;26507;-36
2022/01/23 09:54:12;;;;;;;0.60;0.60;;;;;;;;;;1763808;80;26428;-38
2022/01/23 09:56:42;;;;;;;1.27;0.62;;;;;;;;;;1768730;80;26282;-36
2022/01/23 09:59:12;;;;;;;1.22;0.60;;;;;;;;;;1770655;80;26257;-37
2022/01/23 10:01:45;;;;;;;8.23;1.30;;;;;;;;;;1768306;80;26341;-35
2022/01/23 10:04:13;;;;;;;5.92;1.10;;;;;;;;;;1773562;80;26321;-36
2022/01/23 10:06:40;;;;;;;3.80;0.93;;;;;;;;;;1758097;80;26285;-35
2022/01/23 10:09:07;;;;;;;2.55;0.70;;;;;;;;;;1767574;80;26360;-39
2022/01/23 10:11:39;;;;;;;2.70;0.70;;;;;;;;;;1738472;80;26831;-43
2022/01/23 10:14:04;;;;;;;3.50;0.70;;;;;;;;;;1748709;80;26364;-39
2022/01/23 10:16:32;;;;;;;1.42;0.70;;;;;;;;;;1757185;80;26309;-33
2022/01/23 10:19:01;;;;;;;0.85;0.60;;;;;;;;;;1761988;80;26717;-35
2022/01/23 10:21:33;;;;;;;6.12;1.00;;;;;;;;;;1764897;80;26360;-36
2022/01/23 10:24:00;;;;;;;0.78;0.78;;;;;;;;;;1743356;80;26292;-34
2022/01/23 10:26:44;;;;;;;1.37;0.53;;;;;;;;;;1765027;80;26331;-37
2022/01/23 10:29:12;;;;;;;1.95;0.60;;;;;;;;;;1753877;80;26297;-35
2022/01/23 10:31:57;;;;;;;0.60;0.60;;;;;;;;;;1756987;80;26882;-36
2022/01/23 10:34:29;;;;;;;0.80;0.80;;;;;;;;;;1761069;80;26335;-34
2022/01/23 10:36:56;;;;;;;0.50;0.50;;;;;;;;;;1735142;80;26345;-36
2022/01/23 10:39:25;;;;;;;1.37;0.60;;;;;;;;;;1756792;80;26395;-33
2022/01/23 10:42:11;;;;;;;3.10;0.60;;;;;;;;;;1754054;80;26355;-32
2022/01/23 10:49:47;;;;;;;0.70;0.70;;;;;;;;;;1760981;80;26458;-30
2022/01/23 10:52:35;;;;;;;0.62;0.62;;;;;;;;;;1763380;80;26380;-28
2022/01/23 10:55:04;;;;;;;0.60;0.60;;;;;;;;;;1758227;80;26356;-34
2022/01/23 10:57:36;;;;;;;0.60;0.60;;;;;;;;;;1753079;80;28503;-36
2022/01/23 11:00:05;;;;;;;0.50;0.50;;;;;;;;;;1761302;80;26377;-33
2022/01/23 11:02:33;;;;;;;0.62;0.62;;;;;;;;;;1767522;80;26262;-30
2022/01/23 11:05:08;;;;;;;0.60;0.60;;;;;;;;;;1753745;80;26770;-31
2022/01/23 11:07:37;;;;;;;0.72;0.72;;;;;;;;;;1750826;80;26960;-30
2022/01/23 11:10:06;;;;;;;1.05;0.60;;;;;;;;;;1764236;80;26368;-29
2022/01/23 11:18:10;;;;;;;0.50;0.50;;;;;;;;;;1773179;80;26329;-30
2022/01/23 11:20:41;;;;;;;0.50;0.50;;;;;;;;;;1744358;80;26312;-30
2022/01/23 11:23:16;;;;;;;1.65;0.60;;;;;;;;;;1758691;80;26321;-29
2022/01/23 11:25:46;;;;;;;0.60;0.60;;;;;;;;;;1754282;80;26531;-33
2022/01/23 11:28:13;;;;;;;0.50;0.50;;;;;;;;;;1766411;80;26407;-33
2022/01/23 11:30:42;;;;;;;1.32;0.62;;;;;;;;;;1763179;80;26251;-29
2022/01/23 11:33:11;;;;;;;1.52;0.60;;;;;;;;;;1763297;80;27621;-31
2022/01/23 11:35:39;;;;;;;0.98;0.60;;;;;;;;;;1767796;80;26372;-30
2022/01/23 11:38:16;;;;;;;1.60;0.60;;;;;;;;;;1765614;79;28392;-33
2022/01/23 11:54:38;;;;;;;0.60;0.60;;;;;;;;;;1754487;80;26333;-31
2022/01/23 11:57:05;;;;;;;1.12;0.50;;;;;;;;;;1754679;80;26305;-32
2022/01/23 11:59:35;;;;;;;0.50;0.50;;;;;;;;;;1749037;80;26347;-31
2022/01/23 12:02:14;;;;;;;0.65;0.60;;;;;;;;;;1756075;80;26861;-31
2022/01/23 12:04:43;;;;;;;2.15;0.60;;;;;;;;;;1755386;80;26768;-35
2022/01/23 12:07:12;;;;;;;0.57;0.57;;;;;;;;;;1759368;80;26300;-31
2022/01/23 12:09:42;;;;;;;1.45;0.78;;;;;;;;;;1765928;80;26623;-35
2022/01/23 12:13:03;;;;;;;0.50;0.50;;;;;;;;;;1755359;80;26301;-29
2022/01/23 12:17:10;;;;;;;0.88;0.82;;;;;;;;;;1766976;80;26809;-29
2022/01/23 12:19:48;;;;;;;1.77;0.60;;;;;;;;;;1765200;80;25719;-29
2022/01/23 12:22:23;;;;;;;0.75;0.60;;;;;;;;;;1753569;80;26325;-34
2022/01/23 12:24:52;;;;;;;0.75;0.60;;;;;;;;;;1761243;80;26439;-32
2022/01/23 12:27:23;;;;;;;0.50;0.50;;;;;;;;;;1765649;80;26794;-31
2022/01/23 12:29:51;;;;;;;0.57;0.57;;;;;;;;;;1755078;80;26694;-29
2022/01/23 12:32:34;;;;;;;0.62;0.62;;;;;;;;;;1755039;80;26359;-31
2022/01/23 12:35:02;;;;;;;3.30;0.70;;;;;;;;;;1751274;80;26375;-32
2022/01/23 12:37:31;;;;;;;1.85;0.50;;;;;;;;;;1741062;80;26297;-33
2022/01/23 12:40:05;;;;;;;1.40;0.60;;;;;;;;;;1761296;80;26361;-31
2022/01/23 12:42:51;;;;;;;0.60;0.60;;;;;;;;;;1738948;80;26398;-31
2022/01/23 12:45:25;;;;;;;0.53;0.53;;;;;;;;;;1744527;80;26371;-30
2022/01/23 12:47:53;;;;;;;0.60;0.60;;;;;;;;;;1713600;80;26370;-32
2022/01/23 12:50:21;;;;;;;0.60;0.60;;;;;;;;;;1746449;80;26646;-32
2022/01/23 12:52:50;;;;;;;0.53;0.53;;;;;;;;;;1752597;80;26285;-31
2022/01/23 12:55:19;;;;;;;0.60;0.60;;;;;;;;;;1761741;80;26291;-31
2022/01/23 12:57:46;;;;;;;0.50;0.50;;;;;;;;;;1761380;80;26856;-34
2022/01/23 13:00:18;;;;;;;1.20;0.75;;;;;;;;;;1773503;80;26239;-32
2022/01/23 13:02:48;;;;;;;0.70;0.70;;;;;;;;;;1738058;80;27489;-31
2022/01/23 13:05:15;;;;;;;0.60;0.60;;;;;;;;;;1761380;80;26800;-30
2022/01/23 13:10:53;;;;;;;0.70;0.55;;;;;;;;;;1740147;80;26387;-35
2022/01/23 13:32:19;;;;;;;0.70;0.70;;;;;;;;;;1780962;80;26365;-32
2022/01/23 13:34:51;;;;;;;0.50;0.50;;;;;;;;;;1740853;80;26342;-29
2022/01/23 13:37:20;;;;;;;0.50;0.50;;;;;;;;;;1754881;80;26946;-32
2022/01/23 13:39:56;;;;;;;0.53;0.53;;;;;;;;;;1757277;80;25925;-29
2022/01/23 13:59:17;;;;;;;0.45;0.45;;;;;;;;;;1750300;80;26764;-31
2022/01/23 14:04:18;;;;;;;0.50;0.50;;;;;;;;;;1763754;80;26603;-33
2022/01/23 14:06:46;;;;;;;0.60;0.60;;;;;;;;;;1763347;80;25747;-36
2022/01/23 14:09:16;;;;;;;0.57;0.57;;;;;;;;;;1761393;80;26490;-34
2022/01/23 14:11:44;;;;;;;0.60;0.60;;;;;;;;;;1769556;80;26329;-29
2022/01/23 14:14:20;;;;;;;0.50;0.50;;;;;;;;;;1780808;80;26311;-32
2022/01/23 14:16:48;;;;;;;0.50;0.50;;;;;;;;;;1751741;80;26240;-33
2022/01/23 14:19:18;;;;;;;0.60;0.60;;;;;;;;;;1765213;80;26776;-30
2022/01/23 14:21:47;;;;;;;0.60;0.60;;;;;;;;;;1751393;80;26606;-29
2022/01/23 14:24:24;;;;;;;0.65;0.65;;;;;;;;;;1756096;80;26753;-30
2022/01/23 14:26:56;;;;;;;0.53;0.53;;;;;;;;;;1771310;80;26312;-29
2022/01/23 14:29:24;;;;;;;0.60;0.60;;;;;;;;;;1743239;80;26248;-32
2022/01/23 14:32:16;;;;;;;0.55;0.55;;;;;;;;;;1766954;80;26369;-32
2022/01/23 14:34:41;;;;;;;0.60;0.60;;;;;;;;;;1751823;80;26421;-29
2022/01/23 14:37:09;;;;;;;0.60;0.60;;;;;;;;;;1758172;80;26425;-32
2022/01/23 14:39:37;;;;;;;0.60;0.60;;;;;;;;;;1763846;79;26278;-34
2022/01/23 14:42:11;;;;;;;0.75;0.65;;;;;;;;;;1758306;80;26371;-31
2022/01/23 14:44:39;;;;;;;0.53;0.53;;;;;;;;;;1748039;80;26226;-29
2022/01/23 14:47:08;;;;;;;0.72;0.72;;;;;;;;;;1756247;80;26325;-31
2022/01/23 14:49:37;;;;;;;0.80;0.80;;;;;;;;;;1755436;80;26822;-32
2022/01/23 14:52:10;;;;;;;0.70;0.70;;;;;;;;;;1753469;80;26808;-34
2022/01/23 14:54:34;;;;;;;1.65;0.75;;;;;;;;;;1761074;80;26430;-34
2022/01/23 14:57:02;;;;;;;0.78;0.78;;;;;;;;;;1764354;80;26388;-32
2022/01/23 14:59:30;;;;;;;0.90;0.90;;;;;;;;;;1760871;80;26324;-32
2022/01/23 15:01:59;;;;;;;0.72;0.72;;;;;;;;;;1755609;80;26389;-30
2022/01/23 15:04:26;;;;;;;1.10;1.10;;;;;;;;;;1757130;80;26789;-29
2022/01/23 15:06:54;;;;;;;1.45;1.35;;;;;;;;;;1750108;80;26368;-30
2022/01/23 15:09:22;;;;;;;1.52;1.47;;;;;;;;;;1753211;80;26337;-30
2022/01/23 15:11:51;;;;;;;1.52;1.40;;;;;;;;;;1745978;80;26332;-31
2022/01/23 15:14:18;;;;;;;1.65;1.55;;;;;;;;;;1760925;80;26419;-30
2022/01/23 15:16:48;;;;;;;1.30;1.27;;;;;;;;;;1745094;80;26334;-32
2022/01/23 15:19:15;;;;;;;1.45;1.32;;;;;;;;;;1764076;80;26314;-34
2022/01/23 15:21:42;;;;;;;1.30;1.25;;;;;;;;;;1760042;80;26293;-34
2022/01/23 15:24:10;;;;;;;1.40;1.30;;;;;;;;;;1761822;80;26333;-31
2022/01/23 15:26:40;;;;;;;1.90;1.20;;;;;;;;;;1768524;80;26811;-30
2022/01/23 15:29:07;;;;;;;1.40;1.35;;;;;;;;;;1764887;80;26316;-29
2022/01/23 15:31:37;;;;;;;2.02;1.20;;;;;;;;;;1754985;80;26387;-28
2022/01/23 15:34:04;;;;;;;1.30;1.20;;;;;;;;;;1751440;80;26317;-29
2022/01/23 15:36:32;;;;;;;2.15;1.15;;;;;;;;;;1754302;80;26316;-31
2022/01/23 15:39:01;;;;;;;1.65;1.35;;;;;;;;;;1754477;80;26360;-32
2022/01/23 15:41:28;;;;;;;1.20;1.12;;;;;;;;;;1750972;80;26801;-33
2022/01/23 15:43:55;;;;;;;1.25;1.20;;;;;;;;;;1748534;80;26336;-33
2022/01/23 15:46:23;;;;;;;1.00;1.00;;;;;;;;;;1736832;80;26313;-32
2022/01/23 15:48:50;;;;;;;1.22;1.10;;;;;;;;;;1751677;80;26309;-30
2022/01/23 15:51:18;;;;;;;1.85;1.10;;;;;;;;;;1747611;80;26353;-29
2022/01/23 15:53:45;;;;;;;2.08;1.12;;;;;;;;;;1756251;80;25745;-32
2022/01/23 15:56:13;;;;;;;2.42;1.40;;;;;;;;;;1751289;80;26349;-29
2022/01/23 15:58:40;;;;;;;2.20;1.10;;;;;;;;;;1745270;80;26309;-32
2022/01/23 16:01:07;;;;;;;2.62;1.35;;;;;;;;;;1760035;80;26281;-30
2022/01/23 16:03:35;;;;;;;3.62;1.30;;;;;;;;;;1759129;80;26275;-35
2022/01/23 16:06:02;;;;;;;5.15;1.30;;;;;;;;;;1754640;80;26278;-31
2022/01/23 16:08:29;;;;;;;1.52;1.27;;;;;;;;;;1758735;80;26405;-32
2022/01/23 16:10:59;;;;;;;2.10;1.27;;;;;;;;;;1758061;80;26289;-31
2022/01/23 16:13:25;;;;;;;1.20;1.20;;;;;;;;;;1764636;80;26419;-34
2022/01/23 16:15:53;;;;;;;1.65;1.40;;;;;;;;;;1761377;80;26377;-32
2022/01/23 16:18:20;;;;;;;1.42;1.22;;;;;;;;;;1751108;80;26384;-29
2022/01/23 16:20:47;;;;;;;1.52;1.25;;;;;;;;;;1747101;80;26313;-32
2022/01/23 16:23:16;;;;;;;1.55;1.10;;;;;;;;;;1750571;80;26337;-28
2022/01/23 16:25:43;;;;;;;1.25;1.15;;;;;;;;;;1757052;80;26380;-32
2022/01/23 16:28:10;;;;;;;1.32;1.10;;;;;;;;;;1757974;80;26301;-32
2022/01/23 16:30:45;;;;;;;1.98;1.17;;;;;;;;;;1755772;80;26737;-28
2022/01/23 16:33:12;;;;;;;1.20;1.10;;;;;;;;;;1753766;80;26753;-30
2022/01/23 16:35:40;;;;;;;1.20;1.20;;;;;;;;;;1749404;80;26467;-31
2022/01/23 16:38:07;;;;;;;2.65;1.25;;;;;;;;;;1763997;80;26813;-29
2022/01/23 16:40:35;;;;;;;1.57;1.10;;;;;;;;;;1751349;80;27539;-34
2022/01/23 16:43:02;;;;;;;1.30;1.20;;;;;;;;;;1752845;80;26309;-32
2022/01/23 16:45:29;;;;;;;1.17;1.17;;;;;;;;;;1755060;80;26271;-33
2022/01/23 16:47:57;;;;;;;1.37;1.20;;;;;;;;;;1751667;80;25697;-30
2022/01/23 16:50:24;;;;;;;1.22;1.20;;;;;;;;;;1757459;80;26309;-34
2022/01/23 16:52:52;;;;;;;1.40;1.30;;;;;;;;;;1750064;79;26704;-32
2022/01/23 16:55:20;;;;;;;3.77;1.40;;;;;;;;;;1751597;80;26379;-30
2022/01/23 16:57:47;;;;;;;1.40;1.30;;;;;;;;;;1754580;80;26333;-28
2022/01/23 17:00:15;;;;;;;1.82;1.05;;;;;;;;;;1756917;80;26387;-34
2022/01/23 17:02:42;;;;;;;2.90;1.30;;;;;;;;;;1751839;80;26294;-30
2022/01/23 17:05:10;;;;;;;1.50;1.40;;;;;;;;;;1756147;80;26797;-30
2022/01/23 17:07:37;;;;;;;2.70;1.52;;;;;;;;;;1758690;80;26625;-32
2022/01/23 17:10:06;;;;;;;1.55;1.45;;;;;;;;;;1755065;80;26296;-30
2022/01/23 17:12:34;;;;;;;1.50;1.40;;;;;;;;;;1757287;80;26786;-36
2022/01/23 17:15:01;;;;;;;2.42;1.30;;;;;;;;;;1751970;80;26381;-30
2022/01/23 17:17:28;;;;;;;2.02;1.40;;;;;;;;;;1759013;80;26328;-30
2022/01/23 17:19:56;;;;;;;1.77;1.40;;;;;;;;;;1757592;80;26286;-29
2022/01/23 17:22:23;;;;;;;2.30;1.30;;;;;;;;;;1758530;80;26296;-32
2022/01/23 17:24:51;;;;;;;1.00;1.00;;;;;;;;;;1754395;80;26321;-30
2022/01/23 17:27:19;;;;;;;1.47;1.30;;;;;;;;;;1754511;80;26364;-30
2022/01/23 17:29:47;;;;;;;1.45;1.35;;;;;;;;;;1752430;80;26293;-29
2022/01/23 17:32:15;;;;;;;1.17;1.15;;;;;;;;;;1735929;80;26289;-29
2022/01/23 17:34:43;;;;;;;2.98;1.20;;;;;;;;;;1753213;80;26319;-33
2022/01/23 17:37:10;;;;;;;1.95;1.30;;;;;;;;;;1756950;80;26966;-32
2022/01/23 17:39:38;;;;;;;1.30;1.20;;;;;;;;;;1749145;80;26297;-32
2022/01/23 17:42:09;;;;;;;1.77;1.30;;;;;;;;;;1749041;80;26273;-29
2022/01/23 17:44:37;;;;;;;1.95;1.40;;;;;;;;;;1751326;80;26294;-31
2022/01/23 17:47:19;;;;;;;1.40;1.30;;;;;;;;;;1755191;80;26325;-28
2022/01/23 17:49:52;;;;;;;1.37;1.20;;;;;;;;;;1750599;80;26294;-34
2022/01/23 17:52:03;;;;;;;1.40;1.30;;;;;;;;;;1749532;80;26360;-35
2022/01/23 17:54:31;;;;;;;1.00;1.00;;;;;;;;;;1754695;80;26418;-32
2022/01/23 17:56:58;;;;;;;1.07;1.05;;;;;;;;;;1753019;80;26812;-31
2022/01/23 17:59:25;;;;;;;1.12;1.12;;;;;;;;;;1753422;80;26717;-31
2022/01/23 18:01:55;;;;;;;1.10;0.98;;;;;;;;;;1761105;80;26367;-30
2022/01/23 18:04:22;;;;;;;1.10;1.10;;;;;;;;;;1759339;80;26294;-33
2022/01/23 18:06:55;;;;;;;1.10;1.07;;;;;;;;;;1758481;80;27228;-29
2022/01/23 18:09:23;;;;;;;2.00;0.90;;;;;;;;;;1753449;80;26320;-28
2022/01/23 18:11:49;;;;;;;1.02;1.02;;;;;;;;;;1748236;80;26305;-33
2022/01/23 18:14:16;;;;;;;1.00;1.00;;;;;;;;;;1757149;80;26340;-29
2022/01/23 18:16:44;;;;;;;0.98;0.98;;;;;;;;;;1755045;80;26297;-28
2022/01/23 18:19:11;;;;;;;1.00;1.00;;;;;;;;;;1760574;80;26275;-32
2022/01/23 18:21:39;;;;;;;1.20;0.98;;;;;;;;;;1769743;80;26735;-32
2022/01/23 18:24:09;;;;;;;1.00;1.00;;;;;;;;;;1763147;80;26333;-30
2022/01/23 18:26:38;;;;;;;1.10;1.10;;;;;;;;;;1761972;80;26244;-33
2022/01/23 18:29:06;;;;;;;1.02;1.02;;;;;;;;;;1769008;80;26295;-34
2022/01/23 18:31:34;;;;;;;1.10;1.10;;;;;;;;;;1769294;80;26334;-29